天津 の空港の天気 - METARとTAF

天津濱海国際空港 ( ZBTJ / TSN ) - 中国 天津市
飛行場実況気象(Metar)
観測時間11/19 17:30 CST (11/19 09:30 UTC)
風向・風速南 1m/s
視程10km以上
天気現象
なし
気温4℃
湿度17%
気圧1029hPa
METARZBTJ 190930Z 19001MPS CAVOK 04/M19 Q1029 NOSIG
過去の天気等 Google飛行場航空写真 Wunderground天気予報

過去48時間のMETAR

飛行場予報(TAF)
発表時間: 11/19 11:05 CST (11/19 03:05 UTC)
予報対象時間: 19日14時 CST ~ 20日14時 CST
風向・風速南 3m/s
視程5000m
天気現象煙霧
なし
TAF ZBTJ 190305Z 1906/2006 19003MPS 5000 HZ NSC TX08/2005Z TNM02/21Z